Time;durP1;ratioP1;P1;durP2;ratioP2;P2;SDS_P1;SDS_P2;PMS_P1;PMS_P2;Temp;Humidity;BMP_temperature;BMP_pressure;BME280_temperature;BME280_humidity;BME280_pressure;Samples;Min_cycle;Max_cycle;Signal;HPM_P1;HPM_P2
2022/03/17 00:00:54;;;;;;;10.50;7.80;;;;;;;;;;5068206;28;20048;-71
2022/03/17 00:03:21;;;;;;;10.57;7.22;;;;;;;;;;5068660;28;20059;-71
2022/03/17 00:05:47;;;;;;;9.82;7.30;;;;;;;;;;5068340;28;20576;-71
2022/03/17 00:08:13;;;;;;;10.85;7.10;;;;;;;;;;5068395;28;20491;-71
2022/03/17 00:10:39;;;;;;;8.85;6.70;;;;;;;;;;5067842;28;20170;-71
2022/03/17 00:13:06;;;;;;;8.88;6.93;;;;;;;;;;5050557;28;20152;-71
2022/03/17 00:15:32;;;;;;;9.25;6.97;;;;;;;;;;5050370;28;20059;-72
2022/03/17 00:17:58;;;;;;;13.85;7.50;;;;;;;;;;5068522;28;20052;-72
2022/03/17 00:20:24;;;;;;;10.65;7.85;;;;;;;;;;5067921;28;20470;-72
2022/03/17 00:22:50;;;;;;;9.70;7.35;;;;;;;;;;5068348;28;20079;-72
2022/03/17 00:25:17;;;;;;;9.75;7.25;;;;;;;;;;5068536;28;20090;-72
2022/03/17 00:27:43;;;;;;;9.43;6.80;;;;;;;;;;5068147;28;20495;-76
2022/03/17 00:30:10;;;;;;;13.70;7.88;;;;;;;;;;5050686;28;20047;-71
2022/03/17 00:32:38;;;;;;;15.85;7.75;;;;;;;;;;5067492;28;20505;-72
2022/03/17 00:37:49;;;;;;;10.90;8.13;;;;;;;;;;5050076;28;20553;-72
2022/03/17 00:40:15;;;;;;;11.10;8.00;;;;;;;;;;5050371;28;20391;-71
2022/03/17 00:42:41;;;;;;;13.95;7.65;;;;;;;;;;5067768;28;20734;-72
2022/03/17 00:45:09;;;;;;;10.43;8.13;;;;;;;;;;5068142;28;20449;-72
2022/03/17 00:47:36;;;;;;;11.85;7.53;;;;;;;;;;5050011;28;20044;-72
2022/03/17 00:50:02;;;;;;;12.63;7.50;;;;;;;;;;5069817;28;20084;-71
2022/03/17 00:52:28;;;;;;;10.05;7.72;;;;;;;;;;5072580;28;20070;-72
2022/03/17 00:54:54;;;;;;;9.98;7.82;;;;;;;;;;5071734;28;20044;-71
2022/03/17 00:57:20;;;;;;;12.18;7.80;;;;;;;;;;5072014;28;20040;-72
2022/03/17 00:59:46;;;;;;;10.80;8.07;;;;;;;;;;5053587;28;20463;-70
2022/03/17 01:02:12;;;;;;;10.02;8.35;;;;;;;;;;5072319;28;20513;-71
2022/03/17 01:04:38;;;;;;;11.02;8.25;;;;;;;;;;5071928;28;20071;-71
2022/03/17 01:07:04;;;;;;;10.10;7.82;;;;;;;;;;5071925;28;20040;-71
2022/03/17 01:09:31;;;;;;;10.32;8.00;;;;;;;;;;5071088;28;20049;-72
2022/03/17 01:11:57;;;;;;;9.93;7.57;;;;;;;;;;5071990;28;20402;-72
2022/03/17 01:14:23;;;;;;;13.10;8.40;;;;;;;;;;5071760;28;20084;-72
2022/03/17 01:16:50;;;;;;;10.73;8.40;;;;;;;;;;5071351;28;20048;-71
2022/03/17 01:19:19;;;;;;;9.88;7.85;;;;;;;;;;5053913;28;20044;-71
2022/03/17 01:21:45;;;;;;;10.02;7.88;;;;;;;;;;5071723;28;20068;-71
2022/03/17 01:24:11;;;;;;;10.25;7.43;;;;;;;;;;5053396;28;20056;-71
2022/03/17 01:26:37;;;;;;;9.73;7.70;;;;;;;;;;5071486;28;20049;-71
2022/03/17 01:29:04;;;;;;;11.23;8.57;;;;;;;;;;5071482;28;20044;-72
2022/03/17 01:31:30;;;;;;;10.27;7.85;;;;;;;;;;5070999;28;20045;-71
2022/03/17 01:33:56;;;;;;;10.25;7.80;;;;;;;;;;5070949;28;20052;-71
2022/03/17 01:36:22;;;;;;;9.95;7.65;;;;;;;;;;5071521;28;20052;-70
2022/03/17 01:38:48;;;;;;;9.38;7.55;;;;;;;;;;5053319;28;20044;-71
2022/03/17 01:41:14;;;;;;;10.73;7.70;;;;;;;;;;5070544;28;20242;-70
2022/03/17 01:43:40;;;;;;;10.63;8.00;;;;;;;;;;5071375;28;20131;-71
2022/03/17 01:46:07;;;;;;;11.15;8.27;;;;;;;;;;5053760;28;20050;-71
2022/03/17 01:48:33;;;;;;;9.63;7.53;;;;;;;;;;5071279;28;20086;-70
2022/03/17 01:50:59;;;;;;;9.75;7.55;;;;;;;;;;5070428;28;20052;-70
2022/03/17 01:53:26;;;;;;;11.15;8.60;;;;;;;;;;5071304;28;20044;-71
2022/03/17 01:55:52;;;;;;;11.75;7.70;;;;;;;;;;5052974;28;20048;-71
2022/03/17 01:58:18;;;;;;;10.48;7.68;;;;;;;;;;5070386;28;20118;-71
2022/03/17 02:00:47;;;;;;;9.85;7.75;;;;;;;;;;5069887;28;20059;-71
2022/03/17 02:03:14;;;;;;;9.50;7.68;;;;;;;;;;5070816;28;20109;-71
2022/03/17 02:05:40;;;;;;;10.27;8.30;;;;;;;;;;5070826;28;20048;-72
2022/03/17 02:08:09;;;;;;;9.73;7.97;;;;;;;;;;5070322;28;20056;-71
2022/03/17 02:13:20;;;;;;;10.45;8.10;;;;;;;;;;5070722;28;20453;-71
2022/03/17 02:15:50;;;;;;;9.10;7.70;;;;;;;;;;5070217;28;20110;-72
2022/03/17 02:18:17;;;;;;;9.32;7.85;;;;;;;;;;5052381;28;20056;-71
2022/03/17 02:20:44;;;;;;;9.10;7.75;;;;;;;;;;5070757;28;20429;-71
2022/03/17 02:26:06;;;;;;;10.02;7.90;;;;;;;;;;4999115;28;20060;-70
2022/03/17 02:28:33;;;;;;;12.23;8.57;;;;;;;;;;5070015;28;20051;-70
2022/03/17 02:31:00;;;;;;;14.27;8.02;;;;;;;;;;5069988;28;20388;-71
2022/03/17 02:33:26;;;;;;;11.05;8.70;;;;;;;;;;5070258;28;20094;-70
2022/03/17 02:35:53;;;;;;;13.13;8.70;;;;;;;;;;5069928;28;20517;-70
2022/03/17 02:38:20;;;;;;;12.27;8.07;;;;;;;;;;5052431;28;20056;-70
2022/03/17 02:40:52;;;;;;;12.52;8.25;;;;;;;;;;5052326;28;20481;-70
2022/03/17 02:43:19;;;;;;;12.00;8.85;;;;;;;;;;5051649;28;20052;-70
2022/03/17 02:45:45;;;;;;;10.98;8.20;;;;;;;;;;5069922;28;20095;-71
2022/03/17 02:48:11;;;;;;;11.38;8.73;;;;;;;;;;5052701;28;20044;-71
2022/03/17 02:50:38;;;;;;;10.38;8.43;;;;;;;;;;5069782;28;20514;-71
2022/03/17 02:53:08;;;;;;;12.07;8.27;;;;;;;;;;5070151;28;20351;-71
2022/03/17 02:55:35;;;;;;;9.55;7.90;;;;;;;;;;5051951;28;20209;-71
2022/03/17 02:58:01;;;;;;;12.80;8.73;;;;;;;;;;5069821;28;20120;-71
2022/03/17 03:00:27;;;;;;;11.25;8.77;;;;;;;;;;5069462;28;20048;-71
2022/03/17 03:02:53;;;;;;;14.93;8.88;;;;;;;;;;5069517;28;20044;-71
2022/03/17 03:05:19;;;;;;;10.73;8.20;;;;;;;;;;5069003;28;20055;-71
2022/03/17 03:07:45;;;;;;;13.55;8.07;;;;;;;;;;5051332;28;20053;-71
2022/03/17 03:10:11;;;;;;;11.20;8.70;;;;;;;;;;5068219;28;20044;-71
2022/03/17 03:12:37;;;;;;;11.20;8.52;;;;;;;;;;5068660;28;20051;-71
2022/03/17 03:15:04;;;;;;;12.05;8.55;;;;;;;;;;5050780;28;20045;-71
2022/03/17 03:17:30;;;;;;;25.48;8.38;;;;;;;;;;5068810;28;20060;-71
2022/03/17 03:19:56;;;;;;;10.50;8.20;;;;;;;;;;5050856;28;20044;-71
2022/03/17 03:22:22;;;;;;;10.35;8.07;;;;;;;;;;5068337;28;20040;-71
2022/03/17 03:24:48;;;;;;;10.48;7.88;;;;;;;;;;5068552;28;20495;-71
2022/03/17 03:27:15;;;;;;;10.15;8.00;;;;;;;;;;5068177;28;20563;-71
2022/03/17 03:29:41;;;;;;;11.20;8.75;;;;;;;;;;5068589;28;20131;-71
2022/03/17 03:32:07;;;;;;;12.48;8.20;;;;;;;;;;5050734;28;20056;-71
2022/03/17 03:34:33;;;;;;;10.90;7.45;;;;;;;;;;5067619;28;20053;-71
2022/03/17 03:39:45;;;;;;;11.60;8.25;;;;;;;;;;5068866;28;20094;-71
2022/03/17 03:42:11;;;;;;;10.27;8.45;;;;;;;;;;5050729;28;20163;-71
2022/03/17 03:44:38;;;;;;;11.35;8.23;;;;;;;;;;5068410;28;20047;-71
2022/03/17 03:47:05;;;;;;;12.20;8.25;;;;;;;;;;5051083;28;20045;-70
2022/03/17 03:49:31;;;;;;;9.65;7.78;;;;;;;;;;5069035;28;20102;-70
2022/03/17 03:51:57;;;;;;;9.90;7.90;;;;;;;;;;5068696;28;20041;-71
2022/03/17 03:54:23;;;;;;;9.45;7.55;;;;;;;;;;5068322;28;20375;-71
2022/03/17 03:56:51;;;;;;;9.95;8.48;;;;;;;;;;5069042;28;20048;-71
2022/03/17 04:01:44;;;;;;;9.50;7.35;;;;;;;;;;5050481;28;20464;-71
2022/03/17 04:04:14;;;;;;;10.45;8.02;;;;;;;;;;5051107;28;20052;-70
2022/03/17 04:06:49;;;;;;;10.02;8.10;;;;;;;;;;5068530;28;20040;-71
2022/03/17 04:09:16;;;;;;;8.48;7.20;;;;;;;;;;5068649;28;20052;-70
2022/03/17 04:11:43;;;;;;;10.60;8.52;;;;;;;;;;5067652;28;20053;-69
2022/03/17 04:14:09;;;;;;;11.93;8.18;;;;;;;;;;5068384;28;20049;-69
2022/03/17 04:16:35;;;;;;;10.32;7.70;;;;;;;;;;5033915;28;20487;-68
2022/03/17 04:19:01;;;;;;;10.18;8.25;;;;;;;;;;5050618;28;20075;-69
2022/03/17 04:21:27;;;;;;;11.00;8.27;;;;;;;;;;5068337;28;20182;-69
2022/03/17 04:23:54;;;;;;;10.63;8.32;;;;;;;;;;5067352;28;20078;-69
2022/03/17 04:26:20;;;;;;;10.27;8.27;;;;;;;;;;5068553;28;20067;-69
2022/03/17 04:28:46;;;;;;;11.05;8.23;;;;;;;;;;5067854;28;20483;-70
2022/03/17 04:31:12;;;;;;;9.73;7.75;;;;;;;;;;5050350;28;20541;-69
2022/03/17 04:33:38;;;;;;;10.80;8.30;;;;;;;;;;5067950;28;20060;-69
2022/03/17 04:36:05;;;;;;;10.13;8.20;;;;;;;;;;5068474;28;20105;-70
2022/03/17 04:38:32;;;;;;;9.73;8.10;;;;;;;;;;5049654;28;20556;-70
2022/03/17 04:40:58;;;;;;;12.63;8.13;;;;;;;;;;5068075;28;20074;-69
2022/03/17 04:43:24;;;;;;;9.55;7.75;;;;;;;;;;5050127;28;20136;-70
2022/03/17 04:45:50;;;;;;;9.50;8.05;;;;;;;;;;5067987;28;20520;-70
2022/03/17 04:48:16;;;;;;;11.07;8.75;;;;;;;;;;5068099;28;20045;-70
2022/03/17 04:50:42;;;;;;;11.25;7.93;;;;;;;;;;5067602;28;20044;-70
2022/03/17 04:53:27;;;;;;;10.15;7.93;;;;;;;;;;5068143;28;20112;-70
2022/03/17 04:55:57;;;;;;;9.60;7.68;;;;;;;;;;5067641;28;20048;-70
2022/03/17 04:58:23;;;;;;;9.80;7.53;;;;;;;;;;5033346;28;20359;-70
2022/03/17 05:00:52;;;;;;;9.88;8.25;;;;;;;;;;5067750;28;20053;-70
2022/03/17 05:03:19;;;;;;;10.25;8.32;;;;;;;;;;5067650;28;20430;-70
2022/03/17 05:05:45;;;;;;;10.23;8.25;;;;;;;;;;5067851;28;20639;-69
2022/03/17 05:08:11;;;;;;;10.20;8.20;;;;;;;;;;5067838;28;20533;-70
2022/03/17 05:10:37;;;;;;;10.27;8.32;;;;;;;;;;5068062;28;20295;-69
2022/03/17 05:13:04;;;;;;;9.30;8.05;;;;;;;;;;5067613;28;20048;-69
2022/03/17 05:15:30;;;;;;;10.52;8.55;;;;;;;;;;5067686;28;20041;-73
2022/03/17 05:17:56;;;;;;;11.90;8.27;;;;;;;;;;5068030;28;20056;-73
2022/03/17 05:20:22;;;;;;;18.92;8.57;;;;;;;;;;5050001;28;20044;-71
2022/03/17 05:22:48;;;;;;;12.93;8.55;;;;;;;;;;5066813;28;20127;-71
2022/03/17 05:25:15;;;;;;;15.15;9.40;;;;;;;;;;5067811;28;20043;-71
2022/03/17 05:27:42;;;;;;;15.00;8.88;;;;;;;;;;5067706;28;20070;-71
2022/03/17 05:30:13;;;;;;;12.35;8.73;;;;;;;;;;5067028;28;20091;-71
2022/03/17 05:32:39;;;;;;;11.85;8.77;;;;;;;;;;5049631;28;20127;-70
2022/03/17 05:35:06;;;;;;;11.52;8.93;;;;;;;;;;5067678;28;20064;-70
2022/03/17 05:37:32;;;;;;;10.52;8.60;;;;;;;;;;5071224;28;20055;-70
2022/03/17 05:39:58;;;;;;;10.27;8.70;;;;;;;;;;5053059;28;20040;-71
2022/03/17 05:42:24;;;;;;;13.30;8.70;;;;;;;;;;5071346;28;20127;-71
2022/03/17 05:44:50;;;;;;;11.88;8.85;;;;;;;;;;5070940;28;20156;-71
2022/03/17 05:47:17;;;;;;;9.82;8.25;;;;;;;;;;5071199;28;20135;-71
2022/03/17 05:49:43;;;;;;;12.50;8.85;;;;;;;;;;5071096;28;20056;-71
2022/03/17 05:52:09;;;;;;;12.45;9.40;;;;;;;;;;5053189;28;20044;-71
2022/03/17 05:54:35;;;;;;;12.05;9.07;;;;;;;;;;5070203;28;20051;-71
2022/03/17 05:57:02;;;;;;;11.00;9.05;;;;;;;;;;5071222;28;20088;-70
2022/03/17 05:59:28;;;;;;;11.93;9.27;;;;;;;;;;5053014;28;20429;-70
2022/03/17 06:01:54;;;;;;;13.18;8.60;;;;;;;;;;5070660;28;20502;-69
2022/03/17 06:04:20;;;;;;;13.63;8.55;;;;;;;;;;5086849;28;20483;-72
2022/03/17 06:06:46;;;;;;;10.80;8.07;;;;;;;;;;5090816;28;20159;-70
2022/03/17 06:09:13;;;;;;;11.45;9.13;;;;;;;;;;5090048;28;20109;-70
2022/03/17 06:11:39;;;;;;;14.30;8.60;;;;;;;;;;5090221;28;20044;-70
2022/03/17 06:14:06;;;;;;;10.00;7.82;;;;;;;;;;5091058;28;20055;-70
2022/03/17 06:16:33;;;;;;;11.27;8.75;;;;;;;;;;5072393;28;20090;-70
2022/03/17 06:18:59;;;;;;;10.90;8.73;;;;;;;;;;5090778;28;20055;-70
2022/03/17 06:21:25;;;;;;;10.88;8.75;;;;;;;;;;5090825;28;20420;-70
2022/03/17 06:23:51;;;;;;;8.93;7.95;;;;;;;;;;5089922;28;20083;-70
2022/03/17 06:26:17;;;;;;;12.25;8.73;;;;;;;;;;5091057;28;20054;-70
2022/03/17 06:28:43;;;;;;;10.82;8.68;;;;;;;;;;5090136;28;20479;-70
2022/03/17 06:31:09;;;;;;;9.88;8.20;;;;;;;;;;5090646;28;20079;-70
2022/03/17 06:33:35;;;;;;;9.75;8.23;;;;;;;;;;5090245;28;20470;-70
2022/03/17 06:36:01;;;;;;;11.25;8.27;;;;;;;;;;5090157;28;20083;-70
2022/03/17 06:38:27;;;;;;;10.57;8.40;;;;;;;;;;5089823;28;20048;-70
2022/03/17 06:40:53;;;;;;;9.55;8.00;;;;;;;;;;5090143;28;20056;-70
2022/03/17 06:43:19;;;;;;;10.23;8.45;;;;;;;;;;5072764;28;20544;-71
2022/03/17 06:45:45;;;;;;;11.20;8.52;;;;;;;;;;5090481;28;20044;-71
2022/03/17 06:48:11;;;;;;;10.10;8.23;;;;;;;;;;5071780;28;20117;-71
2022/03/17 06:50:37;;;;;;;9.45;7.88;;;;;;;;;;5072239;28;20417;-71
2022/03/17 06:53:04;;;;;;;10.50;7.78;;;;;;;;;;5072234;28;20077;-71
2022/03/17 06:55:33;;;;;;;8.48;7.43;;;;;;;;;;5090244;28;20311;-70
2022/03/17 06:57:59;;;;;;;9.63;7.80;;;;;;;;;;5071644;28;20040;-70
2022/03/17 07:00:25;;;;;;;9.98;8.13;;;;;;;;;;5071903;28;20459;-72
2022/03/17 07:02:51;;;;;;;9.50;7.45;;;;;;;;;;5089981;28;20056;-71
2022/03/17 07:05:17;;;;;;;9.48;7.53;;;;;;;;;;5089898;28;20058;-71
2022/03/17 07:07:44;;;;;;;10.13;7.85;;;;;;;;;;5089829;28;20048;-72
2022/03/17 07:10:11;;;;;;;9.60;7.55;;;;;;;;;;5090048;28;20456;-70
2022/03/17 07:12:37;;;;;;;8.90;6.93;;;;;;;;;;5089013;28;20559;-70
2022/03/17 07:15:06;;;;;;;12.90;7.55;;;;;;;;;;5089732;28;20044;-69
2022/03/17 07:17:39;;;;;;;8.77;7.25;;;;;;;;;;5072053;28;20062;-70
2022/03/17 07:20:05;;;;;;;10.02;7.78;;;;;;;;;;5071091;28;20123;-71
2022/03/17 07:22:32;;;;;;;8.93;7.82;;;;;;;;;;5089526;28;20047;-70
2022/03/17 07:24:58;;;;;;;8.95;7.25;;;;;;;;;;5054826;28;20122;-70
2022/03/17 07:27:24;;;;;;;10.60;7.35;;;;;;;;;;5089640;28;20047;-70
2022/03/17 07:29:50;;;;;;;10.35;7.22;;;;;;;;;;5088754;28;20047;-70
2022/03/17 07:32:18;;;;;;;9.77;7.22;;;;;;;;;;5089625;28;20045;-69
2022/03/17 07:34:44;;;;;;;8.45;6.68;;;;;;;;;;5070923;28;20119;-73
2022/03/17 07:37:10;;;;;;;11.60;6.85;;;;;;;;;;5089550;28;20052;-73
2022/03/17 07:39:36;;;;;;;14.85;6.15;;;;;;;;;;5089538;28;20044;-70
2022/03/17 07:42:04;;;;;;;15.52;6.47;;;;;;;;;;5070610;28;20105;-70
2022/03/17 07:44:31;;;;;;;11.10;6.95;;;;;;;;;;5089095;28;20387;-70
2022/03/17 07:46:57;;;;;;;9.48;6.03;;;;;;;;;;5071156;28;20044;-69
2022/03/17 07:49:23;;;;;;;9.85;5.50;;;;;;;;;;5089307;28;20063;-69
2022/03/17 07:51:49;;;;;;;9.18;6.28;;;;;;;;;;5088998;28;20048;-69
2022/03/17 07:54:15;;;;;;;7.57;6.00;;;;;;;;;;5088770;28;20588;-68
2022/03/17 07:56:42;;;;;;;9.32;6.18;;;;;;;;;;5088828;28;20058;-69
2022/03/17 07:59:09;;;;;;;8.63;6.35;;;;;;;;;;5069481;28;20479;-68
2022/03/17 08:01:35;;;;;;;8.88;5.68;;;;;;;;;;5088982;28;20044;-69
2022/03/17 08:04:01;;;;;;;8.63;5.93;;;;;;;;;;5088613;28;20047;-69
2022/03/17 08:06:27;;;;;;;8.43;5.80;;;;;;;;;;5088853;28;20048;-69
2022/03/17 08:08:53;;;;;;;8.70;5.70;;;;;;;;;;5089065;28;20075;-68
2022/03/17 08:11:23;;;;;;;9.88;5.90;;;;;;;;;;5071214;28;20079;-70
2022/03/17 08:13:49;;;;;;;14.57;6.28;;;;;;;;;;5089074;28;20512;-69
2022/03/17 08:16:18;;;;;;;8.23;5.85;;;;;;;;;;5088619;28;20066;-71
2022/03/17 08:18:44;;;;;;;9.23;5.70;;;;;;;;;;5088848;28;20365;-70
2022/03/17 08:21:12;;;;;;;8.82;5.70;;;;;;;;;;5089224;28;20131;-70
2022/03/17 08:23:38;;;;;;;8.05;5.90;;;;;;;;;;5088749;28;20052;-70
2022/03/17 08:26:04;;;;;;;7.32;5.32;;;;;;;;;;5088909;28;20113;-70
2022/03/17 08:28:30;;;;;;;11.13;6.40;;;;;;;;;;5088934;28;20044;-70
2022/03/17 08:30:56;;;;;;;8.65;5.65;;;;;;;;;;5089207;28;20054;-70
2022/03/17 08:33:23;;;;;;;7.85;5.43;;;;;;;;;;5088220;28;20056;-69
2022/03/17 08:35:49;;;;;;;7.13;5.70;;;;;;;;;;5088287;28;20047;-69
2022/03/17 08:38:15;;;;;;;7.10;5.65;;;;;;;;;;5089188;28;20047;-70
2022/03/17 08:40:41;;;;;;;8.35;6.05;;;;;;;;;;5070175;28;20064;-70
2022/03/17 08:43:08;;;;;;;7.22;5.25;;;;;;;;;;5088748;28;20085;-70
2022/03/17 08:51:04;;;;;;;7.68;5.55;;;;;;;;;;5088566;28;20048;-69
2022/03/17 08:53:31;;;;;;;7.35;5.22;;;;;;;;;;5088486;28;20058;-69
2022/03/17 08:55:57;;;;;;;15.15;5.25;;;;;;;;;;5088274;28;20036;-73
2022/03/17 08:58:24;;;;;;;9.63;5.00;;;;;;;;;;5069742;28;20055;-73
2022/03/17 09:00:50;;;;;;;9.23;4.80;;;;;;;;;;5088426;28;20048;-73
2022/03/17 09:03:16;;;;;;;6.43;3.97;;;;;;;;;;5092150;28;20042;-71
2022/03/17 09:05:42;;;;;;;8.25;3.80;;;;;;;;;;5085759;28;20036;-71
2022/03/17 09:08:09;;;;;;;6.68;3.53;;;;;;;;;;5087297;28;20047;-71
2022/03/17 09:10:35;;;;;;;6.88;3.85;;;;;;;;;;5088824;28;20051;-70
2022/03/17 09:13:07;;;;;;;10.80;3.85;;;;;;;;;;5093379;28;20056;-70
2022/03/17 09:15:37;;;;;;;6.68;3.65;;;;;;;;;;5092949;28;20048;-70
2022/03/17 09:18:04;;;;;;;5.90;2.90;;;;;;;;;;5093008;28;20044;-70
2022/03/17 09:20:30;;;;;;;7.82;3.55;;;;;;;;;;5073825;28;20048;-70
2022/03/17 09:22:56;;;;;;;7.55;3.00;;;;;;;;;;5091334;28;20072;-70
2022/03/17 09:25:26;;;;;;;6.80;3.03;;;;;;;;;;5092645;28;20135;-70
2022/03/17 09:27:52;;;;;;;6.25;3.35;;;;;;;;;;5092592;28;20048;-70
2022/03/17 09:30:19;;;;;;;6.07;3.25;;;;;;;;;;5092124;28;20076;-71
2022/03/17 09:32:45;;;;;;;7.25;2.97;;;;;;;;;;5074292;28;20066;-71
2022/03/17 09:35:12;;;;;;;6.68;2.83;;;;;;;;;;5091220;28;20051;-70
2022/03/17 09:37:38;;;;;;;6.72;3.38;;;;;;;;;;5069765;28;20091;-71
2022/03/17 09:40:05;;;;;;;6.55;2.90;;;;;;;;;;5071419;28;20051;-71
2022/03/17 09:42:31;;;;;;;6.63;2.92;;;;;;;;;;5071547;28;21137;-71
2022/03/17 09:44:57;;;;;;;5.80;2.83;;;;;;;;;;5065328;28;20040;-73
2022/03/17 09:47:27;;;;;;;8.38;3.00;;;;;;;;;;5089031;28;20079;-71
2022/03/17 09:49:56;;;;;;;4.72;2.40;;;;;;;;;;5090065;28;20079;-73
2022/03/17 09:52:22;;;;;;;7.90;2.97;;;;;;;;;;5091625;28;20047;-73
2022/03/17 09:54:49;;;;;;;7.95;3.00;;;;;;;;;;5091526;28;20044;-73
2022/03/17 09:57:16;;;;;;;6.70;2.60;;;;;;;;;;5090379;28;20058;-74
2022/03/17 09:59:46;;;;;;;6.50;2.95;;;;;;;;;;5073372;28;20044;-73
2022/03/17 10:02:16;;;;;;;5.50;2.60;;;;;;;;;;5091653;28;20052;-73
2022/03/17 10:04:44;;;;;;;6.95;2.80;;;;;;;;;;5091534;28;20503;-73
2022/03/17 10:07:11;;;;;;;6.20;2.53;;;;;;;;;;5091382;28;20044;-72
2022/03/17 10:09:37;;;;;;;6.97;2.50;;;;;;;;;;5073011;28;20114;-74
2022/03/17 10:12:05;;;;;;;8.23;2.53;;;;;;;;;;5090810;28;20056;-73
2022/03/17 10:14:39;;;;;;;5.93;2.30;;;;;;;;;;5091557;28;20056;-71
2022/03/17 10:17:05;;;;;;;5.35;2.50;;;;;;;;;;5073579;28;20298;-71
2022/03/17 10:19:35;;;;;;;4.93;2.33;;;;;;;;;;5091862;28;20134;-72
2022/03/17 10:22:07;;;;;;;6.53;2.53;;;;;;;;;;5091440;28;20051;-70
2022/03/17 10:24:36;;;;;;;8.73;2.30;;;;;;;;;;5073317;28;20044;-69
2022/03/17 10:27:03;;;;;;;8.57;2.53;;;;;;;;;;5073476;28;20055;-69
2022/03/17 10:29:29;;;;;;;8.60;2.50;;;;;;;;;;5090448;28;20467;-69
2022/03/17 10:31:55;;;;;;;5.95;2.47;;;;;;;;;;5091261;28;20055;-70
2022/03/17 10:34:23;;;;;;;7.13;2.30;;;;;;;;;;5073007;28;20143;-69
2022/03/17 10:36:49;;;;;;;6.78;2.55;;;;;;;;;;5090693;28;20098;-69
2022/03/17 10:39:15;;;;;;;7.68;2.45;;;;;;;;;;5091409;28;20078;-68
2022/03/17 10:41:42;;;;;;;4.63;2.20;;;;;;;;;;5090939;28;20249;-71
2022/03/17 10:44:12;;;;;;;7.43;2.17;;;;;;;;;;5055805;28;20047;-71
2022/03/17 10:46:39;;;;;;;7.18;2.80;;;;;;;;;;5090579;28;20071;-71
2022/03/17 10:49:08;;;;;;;8.23;2.55;;;;;;;;;;5072910;28;20090;-70
2022/03/17 10:51:34;;;;;;;6.85;2.60;;;;;;;;;;5084209;28;20145;-70
2022/03/17 10:54:20;;;;;;;6.05;2.45;;;;;;;;;;5090888;28;20052;-71
2022/03/17 10:56:59;;;;;;;8.40;2.33;;;;;;;;;;5072565;28;20062;-73
2022/03/17 10:59:36;;;;;;;7.90;2.72;;;;;;;;;;5051919;28;20044;-70
2022/03/17 11:02:03;;;;;;;5.20;2.13;;;;;;;;;;5076140;28;20048;-70
2022/03/17 11:04:30;;;;;;;7.03;2.08;;;;;;;;;;5090297;28;20095;-69
2022/03/17 11:06:56;;;;;;;5.07;2.10;;;;;;;;;;5090309;28;20120;-70
2022/03/17 11:09:23;;;;;;;6.50;2.25;;;;;;;;;;5089373;28;20067;-69
2022/03/17 11:11:49;;;;;;;5.85;2.42;;;;;;;;;;5090300;28;20152;-69
2022/03/17 11:14:16;;;;;;;6.30;2.00;;;;;;;;;;5090293;28;20494;-69
2022/03/17 11:16:50;;;;;;;5.75;2.58;;;;;;;;;;5071878;28;20087;-71
2022/03/17 11:19:17;;;;;;;6.22;2.22;;;;;;;;;;5090399;28;20050;-70
2022/03/17 11:21:49;;;;;;;5.05;2.30;;;;;;;;;;5090042;28;20122;-71
2022/03/17 11:24:18;;;;;;;5.82;2.08;;;;;;;;;;5071317;28;20084;-69
2022/03/17 11:26:45;;;;;;;6.00;2.00;;;;;;;;;;5054892;28;20409;-71
2022/03/17 11:29:18;;;;;;;5.28;2.20;;;;;;;;;;5089016;28;20075;-70
2022/03/17 11:31:56;;;;;;;5.15;1.80;;;;;;;;;;5090135;28;20126;-69
2022/03/17 11:34:42;;;;;;;3.92;1.70;;;;;;;;;;5089391;28;20077;-69
2022/03/17 11:37:15;;;;;;;8.85;2.00;;;;;;;;;;5072077;28;20101;-69
2022/03/17 11:39:51;;;;;;;7.50;2.05;;;;;;;;;;5089667;28;20044;-69
2022/03/17 11:42:36;;;;;;;5.20;1.85;;;;;;;;;;5089975;28;20135;-68
2022/03/17 11:45:31;;;;;;;6.63;1.90;;;;;;;;;;5089779;28;20070;-69
2022/03/17 11:47:58;;;;;;;6.15;1.42;;;;;;;;;;5071346;28;20048;-70
2022/03/17 11:50:38;;;;;;;4.68;1.80;;;;;;;;;;5070805;28;20093;-69
2022/03/17 11:53:04;;;;;;;4.35;1.88;;;;;;;;;;5089811;28;20359;-69
2022/03/17 11:55:31;;;;;;;4.80;1.52;;;;;;;;;;5089508;28;20450;-69
2022/03/17 11:58:16;;;;;;;6.28;2.05;;;;;;;;;;5090006;28;20127;-69
2022/03/17 12:00:46;;;;;;;6.10;1.75;;;;;;;;;;5089006;28;20059;-69
2022/03/17 12:03:12;;;;;;;4.15;1.77;;;;;;;;;;5090168;28;20417;-70
2022/03/17 12:05:42;;;;;;;6.32;2.58;;;;;;;;;;5071066;28;20082;-70
2022/03/17 12:08:09;;;;;;;3.55;1.50;;;;;;;;;;5088804;28;20052;-69
2022/03/17 12:10:54;;;;;;;4.75;1.88;;;;;;;;;;5089824;28;20052;-70
2022/03/17 12:13:21;;;;;;;4.82;1.50;;;;;;;;;;5071612;28;20052;-69
2022/03/17 12:15:55;;;;;;;3.65;1.67;;;;;;;;;;5070746;28;20494;-70
2022/03/17 12:18:21;;;;;;;5.05;1.65;;;;;;;;;;5089066;28;20044;-70
2022/03/17 12:20:47;;;;;;;5.43;1.73;;;;;;;;;;5087418;28;20477;-70
2022/03/17 12:23:32;;;;;;;3.25;1.33;;;;;;;;;;5087863;28;20478;-70
2022/03/17 12:26:07;;;;;;;4.93;1.50;;;;;;;;;;5089193;28;20036;-70
2022/03/17 12:28:33;;;;;;;6.45;1.73;;;;;;;;;;5088803;28;20130;-69
2022/03/17 12:30:59;;;;;;;5.63;1.70;;;;;;;;;;5070248;28;20054;-70
2022/03/17 12:33:26;;;;;;;5.30;1.55;;;;;;;;;;5070571;28;20059;-71
2022/03/17 12:36:05;;;;;;;7.38;1.67;;;;;;;;;;5089439;28;20048;-70
2022/03/17 12:38:32;;;;;;;5.05;2.08;;;;;;;;;;5071120;28;20432;-70
2022/03/17 12:40:58;;;;;;;4.57;1.50;;;;;;;;;;5070486;28;20044;-73
2022/03/17 12:43:24;;;;;;;5.13;1.52;;;;;;;;;;5070382;28;20046;-71
2022/03/17 12:45:56;;;;;;;5.28;1.52;;;;;;;;;;5088686;28;20044;-69
2022/03/17 12:48:23;;;;;;;4.80;1.58;;;;;;;;;;5087530;28;20052;-70
2022/03/17 12:50:49;;;;;;;4.40;1.40;;;;;;;;;;5054256;28;20128;-70
2022/03/17 12:53:15;;;;;;;7.40;1.77;;;;;;;;;;5084039;28;20067;-71
2022/03/17 12:55:41;;;;;;;6.80;1.52;;;;;;;;;;5086338;28;20047;-72
2022/03/17 12:58:07;;;;;;;4.68;1.65;;;;;;;;;;5086574;28;20040;-70
2022/03/17 13:00:34;;;;;;;4.80;1.40;;;;;;;;;;5068406;28;20036;-72
2022/03/17 13:03:01;;;;;;;5.47;1.75;;;;;;;;;;5067391;28;20040;-71
2022/03/17 13:08:14;;;;;;;5.07;1.95;;;;;;;;;;5068654;28;20060;-75
2022/03/17 13:16:29;;;;;;;5.00;1.50;;;;;;;;;;5010925;28;20054;-71
2022/03/17 13:18:55;;;;;;;12.93;1.95;;;;;;;;;;5021259;28;20059;-70
2022/03/17 13:21:22;;;;;;;16.73;2.35;;;;;;;;;;5068477;28;20048;-70
2022/03/17 13:23:49;;;;;;;5.70;2.10;;;;;;;;;;5086201;28;20050;-70
2022/03/17 13:26:28;;;;;;;5.20;1.42;;;;;;;;;;5086764;28;20128;-70
2022/03/17 13:29:01;;;;;;;8.70;1.98;;;;;;;;;;5085933;28;20207;-69
2022/03/17 13:31:37;;;;;;;4.72;1.65;;;;;;;;;;5068231;28;20047;-69
2022/03/17 13:34:04;;;;;;;8.45;2.15;;;;;;;;;;5085660;28;20473;-69
2022/03/17 13:36:48;;;;;;;4.05;1.50;;;;;;;;;;5084026;28;20039;-69
2022/03/17 13:39:14;;;;;;;4.82;1.95;;;;;;;;;;5084346;28;20063;-69
2022/03/17 13:41:55;;;;;;;5.20;1.77;;;;;;;;;;5086285;28;20059;-69
2022/03/17 13:44:21;;;;;;;4.82;1.63;;;;;;;;;;5086150;28;20052;-69
2022/03/17 13:46:47;;;;;;;5.53;1.58;;;;;;;;;;5087125;28;20052;-69
2022/03/17 13:49:14;;;;;;;6.78;1.42;;;;;;;;;;5088015;28;20248;-70
2022/03/17 13:51:40;;;;;;;5.43;1.70;;;;;;;;;;5088396;28;20102;-69
2022/03/17 13:54:07;;;;;;;5.35;1.30;;;;;;;;;;5088131;28;20043;-69
2022/03/17 13:56:35;;;;;;;7.20;2.00;;;;;;;;;;5069949;28;20055;-69
2022/03/17 13:59:01;;;;;;;4.07;1.40;;;;;;;;;;5090836;28;20481;-70
2022/03/17 14:01:27;;;;;;;6.00;1.55;;;;;;;;;;5090759;28;20074;-69
2022/03/17 14:03:58;;;;;;;5.78;1.75;;;;;;;;;;5090868;28;20131;-68
2022/03/17 14:06:31;;;;;;;3.80;1.55;;;;;;;;;;5072557;28;20044;-69
2022/03/17 14:08:58;;;;;;;5.07;1.73;;;;;;;;;;5090613;28;20040;-68
2022/03/17 14:11:32;;;;;;;5.25;1.40;;;;;;;;;;5072592;28;20046;-68
2022/03/17 14:13:59;;;;;;;4.78;1.70;;;;;;;;;;5072541;28;20405;-68
2022/03/17 14:16:26;;;;;;;3.65;1.20;;;;;;;;;;5090452;28;20059;-69
2022/03/17 14:18:54;;;;;;;4.60;1.20;;;;;;;;;;5090055;28;20437;-69
2022/03/17 14:21:21;;;;;;;6.85;1.65;;;;;;;;;;5072501;28;20506;-68
2022/03/17 14:26:33;;;;;;;4.82;1.40;;;;;;;;;;5090818;28;20058;-68
2022/03/17 14:29:00;;;;;;;5.43;1.45;;;;;;;;;;5089318;28;20054;-68
2022/03/17 14:31:27;;;;;;;6.22;1.38;;;;;;;;;;5087451;28;20048;-69
2022/03/17 14:33:53;;;;;;;6.35;1.48;;;;;;;;;;5089210;28;20052;-69
2022/03/17 14:36:20;;;;;;;3.92;1.20;;;;;;;;;;5088680;28;20417;-69
2022/03/17 14:38:48;;;;;;;4.65;1.48;;;;;;;;;;5089424;28;20423;-69
2022/03/17 14:41:15;;;;;;;3.40;0.95;;;;;;;;;;5071254;28;20085;-68
2022/03/17 14:43:42;;;;;;;6.90;1.00;;;;;;;;;;5088917;28;20070;-68
2022/03/17 14:46:08;;;;;;;5.55;1.35;;;;;;;;;;5086821;28;20059;-69
2022/03/17 14:48:34;;;;;;;5.90;1.48;;;;;;;;;;5088602;28;20055;-68
2022/03/17 14:51:03;;;;;;;4.10;1.30;;;;;;;;;;5089297;28;20052;-68
2022/03/17 14:53:30;;;;;;;5.82;1.13;;;;;;;;;;5088462;28;20048;-68
2022/03/17 14:55:56;;;;;;;8.95;1.40;;;;;;;;;;5090654;28;20909;-68
2022/03/17 14:58:22;;;;;;;4.63;1.30;;;;;;;;;;5078791;28;20102;-68
2022/03/17 15:00:48;;;;;;;3.90;1.50;;;;;;;;;;5085553;28;20043;-67
2022/03/17 15:03:14;;;;;;;3.50;1.05;;;;;;;;;;5089479;28;20056;-67
2022/03/17 15:05:42;;;;;;;3.10;1.20;;;;;;;;;;5088866;28;20044;-68
2022/03/17 15:08:08;;;;;;;5.65;1.30;;;;;;;;;;5088373;28;20036;-68
2022/03/17 15:10:35;;;;;;;3.85;1.27;;;;;;;;;;5087716;28;20087;-68